sensor_id;sensor_type;location;lat;lon;timestamp;pressure;altitude;pressure_sealevel;temperature;humidity
78299;BME280;67556;55.656;12.590;2023-06-22T00:00:59;101751.16;;;17.45;72.44
78299;BME280;67556;55.656;12.590;2023-06-22T00:03:27;101762.34;;;17.24;73.37
78299;BME280;67556;55.656;12.590;2023-06-22T00:05:53;101753.66;;;17.37;72.93
78299;BME280;67556;55.656;12.590;2023-06-22T00:08:22;101759.59;;;17.23;73.59
78299;BME280;67556;55.656;12.590;2023-06-22T00:10:55;101753.56;;;17.33;73.02
78299;BME280;67556;55.656;12.590;2023-06-22T00:13:24;101750.78;;;17.30;73.17
78299;BME280;67556;55.656;12.590;2023-06-22T00:15:56;101757.34;;;17.41;72.91
78299;BME280;67556;55.656;12.590;2023-06-22T00:18:22;101754.69;;;17.42;73.14
78299;BME280;67556;55.656;12.590;2023-06-22T00:20:54;101754.84;;;17.50;72.79
78299;BME280;67556;55.656;12.590;2023-06-22T00:23:27;101760.94;;;17.41;73.22
78299;BME280;67556;55.656;12.590;2023-06-22T00:25:53;101762.72;;;17.41;73.59
78299;BME280;67556;55.656;12.590;2023-06-22T00:28:32;101763.38;;;17.31;73.68
78299;BME280;67556;55.656;12.590;2023-06-22T00:30:58;101758.06;;;17.34;73.62
78299;BME280;67556;55.656;12.590;2023-06-22T00:33:26;101764.16;;;17.25;74.27
78299;BME280;67556;55.656;12.590;2023-06-22T00:35:54;101769.53;;;17.25;74.37
78299;BME280;67556;55.656;12.590;2023-06-22T00:38:22;101771.41;;;17.28;74.21
78299;BME280;67556;55.656;12.590;2023-06-22T00:40:50;101765.88;;;17.23;74.50
78299;BME280;67556;55.656;12.590;2023-06-22T00:43:18;101773.31;;;17.33;74.01
78299;BME280;67556;55.656;12.590;2023-06-22T00:45:45;101770.25;;;17.16;74.84
78299;BME280;67556;55.656;12.590;2023-06-22T00:48:15;101776.50;;;17.15;74.94
78299;BME280;67556;55.656;12.590;2023-06-22T00:50:42;101777.00;;;16.99;75.76
78299;BME280;67556;55.656;12.590;2023-06-22T00:53:11;101770.81;;;17.03;75.95
78299;BME280;67556;55.656;12.590;2023-06-22T00:55:45;101768.72;;;16.91;76.13
78299;BME280;67556;55.656;12.590;2023-06-22T00:58:13;101773.00;;;16.82;76.75
78299;BME280;67556;55.656;12.590;2023-06-22T01:00:40;101766.06;;;16.93;76.27
78299;BME280;67556;55.656;12.590;2023-06-22T01:03:08;101776.84;;;16.93;76.25
78299;BME280;67556;55.656;12.590;2023-06-22T01:05:35;101776.84;;;16.93;76.30
78299;BME280;67556;55.656;12.590;2023-06-22T01:08:08;101782.00;;;16.85;76.94
78299;BME280;67556;55.656;12.590;2023-06-22T01:10:43;101783.75;;;16.82;77.22
78299;BME280;67556;55.656;12.590;2023-06-22T01:13:20;101781.38;;;16.94;76.83
78299;BME280;67556;55.656;12.590;2023-06-22T01:15:53;101784.91;;;16.93;76.59
78299;BME280;67556;55.656;12.590;2023-06-22T01:18:32;101788.78;;;16.69;77.97
78299;BME280;67556;55.656;12.590;2023-06-22T01:21:02;101778.94;;;16.71;77.95
78299;BME280;67556;55.656;12.590;2023-06-22T01:23:47;101794.97;;;16.67;77.67
78299;BME280;67556;55.656;12.590;2023-06-22T01:26:19;101796.84;;;16.69;78.27
78299;BME280;67556;55.656;12.590;2023-06-22T01:28:50;101799.03;;;16.84;77.15
78299;BME280;67556;55.656;12.590;2023-06-22T01:31:19;101798.22;;;16.87;77.10
78299;BME280;67556;55.656;12.590;2023-06-22T01:33:50;101799.09;;;16.86;77.53
78299;BME280;67556;55.656;12.590;2023-06-22T01:36:17;101796.31;;;16.83;77.37
78299;BME280;67556;55.656;12.590;2023-06-22T01:38:47;101807.59;;;16.69;78.62
78299;BME280;67556;55.656;12.590;2023-06-22T01:41:15;101806.72;;;16.70;78.24
78299;BME280;67556;55.656;12.590;2023-06-22T01:43:49;101803.63;;;16.55;78.38
78299;BME280;67556;55.656;12.590;2023-06-22T01:46:18;101806.44;;;16.60;78.72
78299;BME280;67556;55.656;12.590;2023-06-22T01:48:47;101813.25;;;16.47;79.11
78299;BME280;67556;55.656;12.590;2023-06-22T01:51:14;101811.44;;;16.46;79.41
78299;BME280;67556;55.656;12.590;2023-06-22T01:53:41;101813.00;;;16.38;79.17
78299;BME280;67556;55.656;12.590;2023-06-22T01:56:10;101805.03;;;16.41;79.36
78299;BME280;67556;55.656;12.590;2023-06-22T01:58:48;101810.19;;;16.33;79.34
78299;BME280;67556;55.656;12.590;2023-06-22T02:01:42;101817.63;;;16.42;79.37
78299;BME280;67556;55.656;12.590;2023-06-22T02:04:13;101818.56;;;16.44;78.67
78299;BME280;67556;55.656;12.590;2023-06-22T02:06:45;101814.66;;;16.33;79.44
78299;BME280;67556;55.656;12.590;2023-06-22T02:09:17;101822.19;;;16.44;79.01
78299;BME280;67556;55.656;12.590;2023-06-22T02:11:47;101817.13;;;16.25;79.48
78299;BME280;67556;55.656;12.590;2023-06-22T02:14:27;101823.63;;;16.32;79.53
78299;BME280;67556;55.656;12.590;2023-06-22T02:16:57;101822.63;;;16.28;79.93
78299;BME280;67556;55.656;12.590;2023-06-22T02:19:24;101820.94;;;16.32;79.28
78299;BME280;67556;55.656;12.590;2023-06-22T02:21:57;101823.25;;;16.19;79.96
78299;BME280;67556;55.656;12.590;2023-06-22T02:24:30;101812.41;;;16.16;80.43
78299;BME280;67556;55.656;12.590;2023-06-22T02:26:59;101817.63;;;16.10;80.84
78299;BME280;67556;55.656;12.590;2023-06-22T02:29:25;101821.88;;;16.02;80.83
78299;BME280;67556;55.656;12.590;2023-06-22T02:31:52;101824.59;;;16.04;80.77
78299;BME280;67556;55.656;12.590;2023-06-22T02:34:31;101823.13;;;16.15;80.29
78299;BME280;67556;55.656;12.590;2023-06-22T02:37:00;101819.69;;;16.20;80.11
78299;BME280;67556;55.656;12.590;2023-06-22T02:39:29;101822.88;;;16.06;80.52
78299;BME280;67556;55.656;12.590;2023-06-22T02:41:57;101821.16;;;16.09;80.32
78299;BME280;67556;55.656;12.590;2023-06-22T02:44:24;101825.75;;;16.13;80.05
78299;BME280;67556;55.656;12.590;2023-06-22T02:46:58;101833.47;;;16.01;80.78
78299;BME280;67556;55.656;12.590;2023-06-22T02:49:24;101828.78;;;15.94;80.79
78299;BME280;67556;55.656;12.590;2023-06-22T02:51:52;101827.75;;;15.89;81.23
78299;BME280;67556;55.656;12.590;2023-06-22T02:54:26;101833.13;;;15.89;81.07
78299;BME280;67556;55.656;12.590;2023-06-22T02:56:53;101830.28;;;15.84;81.48
78299;BME280;67556;55.656;12.590;2023-06-22T02:59:26;101838.69;;;15.96;80.86
78299;BME280;67556;55.656;12.590;2023-06-22T03:01:53;101825.00;;;15.87;81.18
78299;BME280;67556;55.656;12.590;2023-06-22T03:04:20;101828.47;;;15.83;81.02
78299;BME280;67556;55.656;12.590;2023-06-22T03:07:07;101831.63;;;15.70;82.28
78299;BME280;67556;55.656;12.590;2023-06-22T03:09:52;101839.72;;;15.71;82.18
78299;BME280;67556;55.656;12.590;2023-06-22T03:12:18;101847.03;;;15.76;82.20
78299;BME280;67556;55.656;12.590;2023-06-22T03:14:54;101846.94;;;15.73;82.40
78299;BME280;67556;55.656;12.590;2023-06-22T03:17:40;101850.84;;;15.84;81.46
78299;BME280;67556;55.656;12.590;2023-06-22T03:20:14;101856.94;;;15.77;81.79
78299;BME280;67556;55.656;12.590;2023-06-22T03:22:42;101858.78;;;15.79;82.10
78299;BME280;67556;55.656;12.590;2023-06-22T03:25:09;101855.81;;;15.70;82.47
78299;BME280;67556;55.656;12.590;2023-06-22T03:27:51;101859.38;;;15.69;82.63
78299;BME280;67556;55.656;12.590;2023-06-22T03:30:17;101854.13;;;15.74;82.44
78299;BME280;67556;55.656;12.590;2023-06-22T03:32:54;101863.06;;;15.73;82.69
78299;BME280;67556;55.656;12.590;2023-06-22T03:35:21;101860.38;;;15.73;83.00
78299;BME280;67556;55.656;12.590;2023-06-22T03:37:50;101863.13;;;15.76;82.62
78299;BME280;67556;55.656;12.590;2023-06-22T03:40:16;101854.28;;;15.78;82.45
78299;BME280;67556;55.656;12.590;2023-06-22T03:42:45;101857.97;;;15.82;82.76
78299;BME280;67556;55.656;12.590;2023-06-22T03:45:17;101862.72;;;15.90;82.38
78299;BME280;67556;55.656;12.590;2023-06-22T03:47:53;101866.97;;;15.84;82.76
78299;BME280;67556;55.656;12.590;2023-06-22T03:50:21;101867.97;;;15.87;82.52
78299;BME280;67556;55.656;12.590;2023-06-22T03:52:49;101873.44;;;15.89;82.50
78299;BME280;67556;55.656;12.590;2023-06-22T03:55:25;101871.00;;;15.98;82.03
78299;BME280;67556;55.656;12.590;2023-06-22T03:58:10;101875.00;;;16.12;81.87
78299;BME280;67556;55.656;12.590;2023-06-22T04:00:45;101874.34;;;16.19;81.50
78299;BME280;67556;55.656;12.590;2023-06-22T04:03:19;101881.22;;;16.10;82.02
78299;BME280;67556;55.656;12.590;2023-06-22T04:05:46;101882.50;;;16.23;81.51
78299;BME280;67556;55.656;12.590;2023-06-22T04:08:15;101879.03;;;16.27;81.68
78299;BME280;67556;55.656;12.590;2023-06-22T04:10:43;101866.97;;;16.44;80.74
78299;BME280;67556;55.656;12.590;2023-06-22T04:13:10;101874.63;;;16.60;80.24
78299;BME280;67556;55.656;12.590;2023-06-22T04:15:36;101875.94;;;16.75;79.47
78299;BME280;67556;55.656;12.590;2023-06-22T04:18:05;101871.31;;;16.70;79.47
78299;BME280;67556;55.656;12.590;2023-06-22T04:20:37;101870.13;;;16.92;79.07
78299;BME280;67556;55.656;12.590;2023-06-22T04:23:04;101873.13;;;17.05;78.04
78299;BME280;67556;55.656;12.590;2023-06-22T04:25:42;101874.00;;;17.04;77.69
78299;BME280;67556;55.656;12.590;2023-06-22T04:28:16;101881.13;;;17.02;77.60
78299;BME280;67556;55.656;12.590;2023-06-22T04:30:42;101889.41;;;17.09;76.60
78299;BME280;67556;55.656;12.590;2023-06-22T04:33:14;101886.72;;;17.09;76.61
78299;BME280;67556;55.656;12.590;2023-06-22T04:35:54;101896.25;;;16.96;76.91
78299;BME280;67556;55.656;12.590;2023-06-22T04:38:24;101882.19;;;17.08;76.37
78299;BME280;67556;55.656;12.590;2023-06-22T04:40:53;101884.81;;;17.05;76.16
78299;BME280;67556;55.656;12.590;2023-06-22T04:43:27;101886.78;;;17.12;75.94
78299;BME280;67556;55.656;12.590;2023-06-22T04:45:56;101883.19;;;17.12;75.55
78299;BME280;67556;55.656;12.590;2023-06-22T04:48:47;101885.91;;;17.12;75.15
78299;BME280;67556;55.656;12.590;2023-06-22T04:51:22;101893.75;;;17.04;75.35
78299;BME280;67556;55.656;12.590;2023-06-22T04:54:12;101889.88;;;16.93;75.92
78299;BME280;67556;55.656;12.590;2023-06-22T04:56:58;101897.22;;;16.99;75.13
78299;BME280;67556;55.656;12.590;2023-06-22T04:59:32;101894.63;;;17.03;75.32
78299;BME280;67556;55.656;12.590;2023-06-22T05:02:12;101905.56;;;17.09;74.59
78299;BME280;67556;55.656;12.590;2023-06-22T05:04:39;101903.97;;;17.17;74.48
78299;BME280;67556;55.656;12.590;2023-06-22T05:07:07;101897.88;;;17.25;74.17
78299;BME280;67556;55.656;12.590;2023-06-22T05:09:41;101902.06;;;17.13;74.64
78299;BME280;67556;55.656;12.590;2023-06-22T05:12:15;101897.78;;;17.21;74.33
78299;BME280;67556;55.656;12.590;2023-06-22T05:14:43;101917.84;;;17.33;74.23
78299;BME280;67556;55.656;12.590;2023-06-22T05:17:16;101915.94;;;17.29;73.54
78299;BME280;67556;55.656;12.590;2023-06-22T05:19:46;101907.19;;;17.37;73.82
78299;BME280;67556;55.656;12.590;2023-06-22T05:22:20;101908.28;;;17.45;73.57
78299;BME280;67556;55.656;12.590;2023-06-22T05:25:02;101907.50;;;17.50;73.02
78299;BME280;67556;55.656;12.590;2023-06-22T05:27:30;101908.34;;;17.49;72.61
78299;BME280;67556;55.656;12.590;2023-06-22T05:30:05;101917.47;;;17.54;72.80
78299;BME280;67556;55.656;12.590;2023-06-22T05:32:34;101913.28;;;17.66;72.31
78299;BME280;67556;55.656;12.590;2023-06-22T05:35:01;101914.28;;;17.70;72.04
78299;BME280;67556;55.656;12.590;2023-06-22T05:37:29;101909.78;;;17.70;72.17
78299;BME280;67556;55.656;12.590;2023-06-22T05:40:06;101915.88;;;17.62;71.63
78299;BME280;67556;55.656;12.590;2023-06-22T05:42:36;101917.78;;;17.66;71.38
78299;BME280;67556;55.656;12.590;2023-06-22T05:45:03;101920.91;;;17.83;71.13
78299;BME280;67556;55.656;12.590;2023-06-22T05:47:36;101929.44;;;17.66;71.21
78299;BME280;67556;55.656;12.590;2023-06-22T05:50:16;101925.75;;;17.61;71.45
78299;BME280;67556;55.656;12.590;2023-06-22T05:52:55;101928.50;;;17.64;71.24
78299;BME280;67556;55.656;12.590;2023-06-22T05:55:41;101916.97;;;17.70;70.57
78299;BME280;67556;55.656;12.590;2023-06-22T05:58:11;101928.69;;;17.74;70.06
78299;BME280;67556;55.656;12.590;2023-06-22T06:00:39;101929.59;;;17.73;69.64
78299;BME280;67556;55.656;12.590;2023-06-22T06:03:08;101926.56;;;17.95;69.81
78299;BME280;67556;55.656;12.590;2023-06-22T06:05:36;101934.66;;;17.95;69.82
78299;BME280;67556;55.656;12.590;2023-06-22T06:08:05;101930.31;;;18.03;69.33
78299;BME280;67556;55.656;12.590;2023-06-22T06:10:32;101915.78;;;17.95;69.21
78299;BME280;67556;55.656;12.590;2023-06-22T06:13:15;101918.81;;;18.10;68.52
78299;BME280;67556;55.656;12.590;2023-06-22T06:15:59;101918.50;;;17.97;69.11
78299;BME280;67556;55.656;12.590;2023-06-22T06:18:27;101923.22;;;18.07;69.63
78299;BME280;67556;55.656;12.590;2023-06-22T06:20:54;101921.78;;;18.23;69.20
78299;BME280;67556;55.656;12.590;2023-06-22T06:23:22;101917.44;;;18.29;68.72
78299;BME280;67556;55.656;12.590;2023-06-22T06:25:54;101912.81;;;18.24;68.23
78299;BME280;67556;55.656;12.590;2023-06-22T06:28:22;101918.16;;;18.20;69.19
78299;BME280;67556;55.656;12.590;2023-06-22T06:30:48;101929.88;;;18.23;68.40
78299;BME280;67556;55.656;12.590;2023-06-22T06:33:19;101918.88;;;18.12;68.80
78299;BME280;67556;55.656;12.590;2023-06-22T06:36:02;101929.94;;;18.26;68.36
78299;BME280;67556;55.656;12.590;2023-06-22T06:38:31;101919.16;;;18.26;67.37
78299;BME280;67556;55.656;12.590;2023-06-22T06:41:04;101934.56;;;18.33;67.28
78299;BME280;67556;55.656;12.590;2023-06-22T06:43:38;101922.94;;;18.34;66.61
78299;BME280;67556;55.656;12.590;2023-06-22T06:46:07;101925.63;;;18.34;67.01
78299;BME280;67556;55.656;12.590;2023-06-22T06:48:35;101929.25;;;18.36;67.31
78299;BME280;67556;55.656;12.590;2023-06-22T06:51:14;101927.81;;;18.53;67.16
78299;BME280;67556;55.656;12.590;2023-06-22T06:53:46;101933.03;;;18.44;66.27
78299;BME280;67556;55.656;12.590;2023-06-22T06:56:13;101915.09;;;18.46;66.22
78299;BME280;67556;55.656;12.590;2023-06-22T06:58:46;101918.88;;;18.54;65.92
78299;BME280;67556;55.656;12.590;2023-06-22T07:01:26;101920.78;;;18.61;64.97
78299;BME280;67556;55.656;12.590;2023-06-22T07:03:59;101923.53;;;18.63;65.01
78299;BME280;67556;55.656;12.590;2023-06-22T07:06:27;101919.78;;;18.56;65.48
78299;BME280;67556;55.656;12.590;2023-06-22T07:08:58;101919.97;;;18.64;65.89
78299;BME280;67556;55.656;12.590;2023-06-22T07:11:26;101917.41;;;18.70;65.57
78299;BME280;67556;55.656;12.590;2023-06-22T07:14:02;101921.22;;;18.80;65.39
78299;BME280;67556;55.656;12.590;2023-06-22T07:16:31;101921.38;;;18.89;65.13
78299;BME280;67556;55.656;12.590;2023-06-22T07:19:07;101912.59;;;19.01;64.27
78299;BME280;67556;55.656;12.590;2023-06-22T07:21:47;101919.00;;;19.07;63.81
78299;BME280;67556;55.656;12.590;2023-06-22T07:24:20;101911.91;;;19.12;63.98
78299;BME280;67556;55.656;12.590;2023-06-22T07:26:53;101917.44;;;19.20;63.46
78299;BME280;67556;55.656;12.590;2023-06-22T07:29:29;101914.72;;;19.18;63.38
78299;BME280;67556;55.656;12.590;2023-06-22T07:32:07;101900.44;;;19.26;62.70
78299;BME280;67556;55.656;12.590;2023-06-22T07:34:34;101904.00;;;19.25;62.81
78299;BME280;67556;55.656;12.590;2023-06-22T07:37:14;101916.75;;;19.32;63.19
78299;BME280;67556;55.656;12.590;2023-06-22T07:39:48;101909.53;;;19.31;63.42
78299;BME280;67556;55.656;12.590;2023-06-22T07:42:21;101924.28;;;19.51;62.95
78299;BME280;67556;55.656;12.590;2023-06-22T07:44:55;101930.63;;;19.53;62.06
78299;BME280;67556;55.656;12.590;2023-06-22T07:47:30;101919.91;;;19.59;62.58
78299;BME280;67556;55.656;12.590;2023-06-22T07:50:10;101919.16;;;19.66;61.81
78299;BME280;67556;55.656;12.590;2023-06-22T07:52:38;101918.25;;;19.67;61.16
78299;BME280;67556;55.656;12.590;2023-06-22T07:55:05;101917.41;;;19.72;60.23
78299;BME280;67556;55.656;12.590;2023-06-22T07:57:32;101910.50;;;19.89;59.77
78299;BME280;67556;55.656;12.590;2023-06-22T08:00:04;101906.78;;;19.84;59.75
78299;BME280;67556;55.656;12.590;2023-06-22T08:02:50;101912.19;;;19.81;59.09
78299;BME280;67556;55.656;12.590;2023-06-22T08:05:19;101907.69;;;19.81;59.59
78299;BME280;67556;55.656;12.590;2023-06-22T08:07:58;101910.59;;;19.97;59.61
78299;BME280;67556;55.656;12.590;2023-06-22T08:10:32;101907.78;;;19.89;60.39
78299;BME280;67556;55.656;12.590;2023-06-22T08:13:17;101908.94;;;20.06;59.58
78299;BME280;67556;55.656;12.590;2023-06-22T08:15:46;101905.41;;;20.10;59.46
78299;BME280;67556;55.656;12.590;2023-06-22T08:18:14;101904.22;;;19.91;59.03
78299;BME280;67556;55.656;12.590;2023-06-22T08:20:50;101901.78;;;20.11;59.53
78299;BME280;67556;55.656;12.590;2023-06-22T08:23:23;101900.03;;;20.16;60.18
78299;BME280;67556;55.656;12.590;2023-06-22T08:25:58;101910.13;;;20.28;59.71
78299;BME280;67556;55.656;12.590;2023-06-22T08:28:27;101906.69;;;20.41;58.02
78299;BME280;67556;55.656;12.590;2023-06-22T08:30:55;101909.44;;;20.44;57.91
78299;BME280;67556;55.656;12.590;2023-06-22T08:33:23;101908.44;;;20.38;58.25
78299;BME280;67556;55.656;12.590;2023-06-22T08:36:01;101906.69;;;20.41;58.42
78299;BME280;67556;55.656;12.590;2023-06-22T08:38:28;101915.06;;;20.60;58.00
78299;BME280;67556;55.656;12.590;2023-06-22T08:41:01;101912.16;;;20.48;57.95
78299;BME280;67556;55.656;12.590;2023-06-22T08:43:30;101925.16;;;20.73;57.63
78299;BME280;67556;55.656;12.590;2023-06-22T08:45:59;101923.97;;;20.51;56.65
78299;BME280;67556;55.656;12.590;2023-06-22T08:48:33;101917.91;;;20.69;55.37
78299;BME280;67556;55.656;12.590;2023-06-22T08:51:12;101914.28;;;20.70;56.56
78299;BME280;67556;55.656;12.590;2023-06-22T08:53:52;101910.78;;;20.79;56.36
78299;BME280;67556;55.656;12.590;2023-06-22T08:56:31;101912.47;;;20.69;56.18
78299;BME280;67556;55.656;12.590;2023-06-22T08:58:59;101919.66;;;20.65;55.45
78299;BME280;67556;55.656;12.590;2023-06-22T09:01:43;101924.28;;;20.76;56.05
78299;BME280;67556;55.656;12.590;2023-06-22T09:04:12;101912.66;;;20.86;55.33
78299;BME280;67556;55.656;12.590;2023-06-22T09:06:45;101907.28;;;20.90;55.60
78299;BME280;67556;55.656;12.590;2023-06-22T09:09:21;101901.19;;;21.14;55.38
78299;BME280;67556;55.656;12.590;2023-06-22T09:11:53;101908.31;;;21.06;55.30
78299;BME280;67556;55.656;12.590;2023-06-22T09:14:20;101906.53;;;21.05;55.29
78299;BME280;67556;55.656;12.590;2023-06-22T09:16:47;101906.69;;;21.24;53.80
78299;BME280;67556;55.656;12.590;2023-06-22T09:19:16;101898.63;;;21.31;53.14
78299;BME280;67556;55.656;12.590;2023-06-22T09:21:44;101900.44;;;21.29;52.44
78299;BME280;67556;55.656;12.590;2023-06-22T09:24:12;101913.94;;;21.28;52.79
78299;BME280;67556;55.656;12.590;2023-06-22T09:26:40;101906.72;;;21.27;52.62
78299;BME280;67556;55.656;12.590;2023-06-22T09:29:09;101915.03;;;21.43;52.23
78299;BME280;67556;55.656;12.590;2023-06-22T09:31:37;101910.56;;;21.50;51.70
78299;BME280;67556;55.656;12.590;2023-06-22T09:34:12;101912.28;;;21.39;52.42
78299;BME280;67556;55.656;12.590;2023-06-22T09:36:41;101910.53;;;21.47;53.18
78299;BME280;67556;55.656;12.590;2023-06-22T09:39:07;101909.69;;;21.50;50.01
78299;BME280;67556;55.656;12.590;2023-06-22T09:41:33;101913.38;;;21.65;50.47
78299;BME280;67556;55.656;12.590;2023-06-22T09:44:00;101918.81;;;21.64;51.25
78299;BME280;67556;55.656;12.590;2023-06-22T09:46:32;101907.16;;;21.77;51.18
78299;BME280;67556;55.656;12.590;2023-06-22T09:48:59;101900.84;;;21.81;49.50
78299;BME280;67556;55.656;12.590;2023-06-22T09:51:46;101890.00;;;21.81;49.18
78299;BME280;67556;55.656;12.590;2023-06-22T09:54:13;101891.81;;;21.81;49.02
78299;BME280;67556;55.656;12.590;2023-06-22T09:56:57;101890.03;;;21.84;50.44
78299;BME280;67556;55.656;12.590;2023-06-22T09:59:23;101908.97;;;21.77;49.39
78299;BME280;67556;55.656;12.590;2023-06-22T10:02:08;101892.66;;;21.72;48.51
78299;BME280;67556;55.656;12.590;2023-06-22T10:04:45;101895.53;;;21.97;49.29
78299;BME280;67556;55.656;12.590;2023-06-22T10:07:18;101892.03;;;22.14;49.38
78299;BME280;67556;55.656;12.590;2023-06-22T10:10:04;101891.03;;;22.00;49.06
78299;BME280;67556;55.656;12.590;2023-06-22T10:12:30;101886.53;;;22.11;48.25
78299;BME280;67556;55.656;12.590;2023-06-22T10:15:03;101877.56;;;22.20;49.06
78299;BME280;67556;55.656;12.590;2023-06-22T10:17:49;101876.66;;;22.13;46.03
78299;BME280;67556;55.656;12.590;2023-06-22T10:20:16;101891.03;;;22.00;46.82
78299;BME280;67556;55.656;12.590;2023-06-22T10:23:03;101891.06;;;22.09;47.86
78299;BME280;67556;55.656;12.590;2023-06-22T10:25:29;101888.44;;;22.23;48.17
78299;BME280;67556;55.656;12.590;2023-06-22T10:28:10;101897.56;;;22.36;48.07
78299;BME280;67556;55.656;12.590;2023-06-22T10:30:39;101902.09;;;22.34;46.67
78299;BME280;67556;55.656;12.590;2023-06-22T10:33:09;101892.19;;;22.51;46.12
78299;BME280;67556;55.656;12.590;2023-06-22T10:35:55;101891.28;;;22.51;45.53
78299;BME280;67556;55.656;12.590;2023-06-22T10:38:23;101884.94;;;22.52;46.54
78299;BME280;67556;55.656;12.590;2023-06-22T10:41:07;101885.03;;;22.72;45.32
78299;BME280;67556;55.656;12.590;2023-06-22T10:43:34;101892.22;;;22.62;46.04
78299;BME280;67556;55.656;12.590;2023-06-22T10:46:19;101893.16;;;22.67;46.11
78299;BME280;67556;55.656;12.590;2023-06-22T10:48:45;101888.66;;;22.83;44.92
78299;BME280;67556;55.656;12.590;2023-06-22T10:51:30;101885.94;;;22.87;44.98
78299;BME280;67556;55.656;12.590;2023-06-22T10:53:59;101885.06;;;22.88;44.79
78299;BME280;67556;55.656;12.590;2023-06-22T10:56:44;101888.63;;;22.71;44.82
78299;BME280;67556;55.656;12.590;2023-06-22T10:59:16;101886.88;;;22.91;44.59
78299;BME280;67556;55.656;12.590;2023-06-22T11:01:48;101887.81;;;23.07;44.96
78299;BME280;67556;55.656;12.590;2023-06-22T11:04:34;101879.69;;;23.24;44.32
78299;BME280;67556;55.656;12.590;2023-06-22T11:07:06;101876.94;;;23.11;43.87
78299;BME280;67556;55.656;12.590;2023-06-22T11:09:36;101880.59;;;23.10;42.99
78299;BME280;67556;55.656;12.590;2023-06-22T11:12:06;101874.25;;;23.19;42.64
78299;BME280;67556;55.656;12.590;2023-06-22T11:14:47;101868.81;;;23.19;42.41
78299;BME280;67556;55.656;12.590;2023-06-22T11:17:25;101873.34;;;23.31;42.74
78299;BME280;67556;55.656;12.590;2023-06-22T11:19:52;101865.16;;;23.38;42.96
78299;BME280;67556;55.656;12.590;2023-06-22T11:22:38;101866.06;;;23.57;42.57
78299;BME280;67556;55.656;12.590;2023-06-22T11:25:17;101878.75;;;23.71;39.39
78299;BME280;67556;55.656;12.590;2023-06-22T11:27:51;101875.13;;;23.78;37.89
78299;BME280;67556;55.656;12.590;2023-06-22T11:30:20;101890.50;;;23.93;38.47
78299;BME280;67556;55.656;12.590;2023-06-22T11:33:01;101876.88;;;23.97;39.17
78299;BME280;67556;55.656;12.590;2023-06-22T11:35:46;101882.38;;;23.89;38.30
78299;BME280;67556;55.656;12.590;2023-06-22T11:38:27;101881.38;;;24.09;38.02
78299;BME280;67556;55.656;12.590;2023-06-22T11:40:57;101871.38;;;24.12;37.35
78299;BME280;67556;55.656;12.590;2023-06-22T11:43:36;101877.69;;;24.25;37.01
78299;BME280;67556;55.656;12.590;2023-06-22T11:46:21;101871.31;;;24.26;36.91
78299;BME280;67556;55.656;12.590;2023-06-22T11:48:47;101863.19;;;24.14;38.39
78299;BME280;67556;55.656;12.590;2023-06-22T11:51:32;101862.25;;;24.26;45.25
78299;BME280;67556;55.656;12.590;2023-06-22T11:54:01;101867.75;;;24.17;47.80
78299;BME280;67556;55.656;12.590;2023-06-22T11:56:42;101867.72;;;24.24;47.43
78299;BME280;67556;55.656;12.590;2023-06-22T11:59:17;101864.09;;;24.24;47.77
78299;BME280;67556;55.656;12.590;2023-06-22T12:01:44;101876.75;;;24.31;46.97
78299;BME280;67556;55.656;12.590;2023-06-22T12:04:10;101864.03;;;24.36;45.98
78299;BME280;67556;55.656;12.590;2023-06-22T12:06:39;101870.34;;;24.53;45.88
78299;BME280;67556;55.656;12.590;2023-06-22T12:09:09;101867.44;;;24.79;44.84
78299;BME280;67556;55.656;12.590;2023-06-22T12:11:47;101868.25;;;24.94;44.83
78299;BME280;67556;55.656;12.590;2023-06-22T12:14:29;101870.06;;;24.96;45.75
78299;BME280;67556;55.656;12.590;2023-06-22T12:16:57;101866.31;;;25.14;45.11
78299;BME280;67556;55.656;12.590;2023-06-22T12:19:36;101866.25;;;25.25;45.37
78299;BME280;67556;55.656;12.590;2023-06-22T12:22:03;101868.81;;;25.40;45.42
78299;BME280;67556;55.656;12.590;2023-06-22T12:24:31;101868.88;;;25.37;44.81
78299;BME280;67556;55.656;12.590;2023-06-22T12:26:59;101859.69;;;25.44;44.47
78299;BME280;67556;55.656;12.590;2023-06-22T12:29:28;101868.59;;;25.61;44.33
78299;BME280;67556;55.656;12.590;2023-06-22T12:32:01;101860.38;;;25.68;43.50
78299;BME280;67556;55.656;12.590;2023-06-22T12:34:28;101859.44;;;25.69;42.93
78299;BME280;67556;55.656;12.590;2023-06-22T12:37:02;101861.16;;;25.82;42.51
78299;BME280;67556;55.656;12.590;2023-06-22T12:39:30;101856.50;;;25.90;40.35
78299;BME280;67556;55.656;12.590;2023-06-22T12:41:57;101849.16;;;25.97;42.63
78299;BME280;67556;55.656;12.590;2023-06-22T12:44:35;101853.66;;;26.02;42.97
78299;BME280;67556;55.656;12.590;2023-06-22T12:47:02;101858.16;;;26.03;42.93
78299;BME280;67556;55.656;12.590;2023-06-22T12:49:30;101856.38;;;26.02;43.45
78299;BME280;67556;55.656;12.590;2023-06-22T12:51:56;101860.00;;;26.03;42.66
78299;BME280;67556;55.656;12.590;2023-06-22T12:54:24;101860.69;;;26.20;43.06
78299;BME280;67556;55.656;12.590;2023-06-22T12:56:51;101861.31;;;26.44;43.15
78299;BME280;67556;55.656;12.590;2023-06-22T12:59:24;101862.22;;;26.47;41.51
78299;BME280;67556;55.656;12.590;2023-06-22T13:01:56;101861.19;;;26.54;42.37
78299;BME280;67556;55.656;12.590;2023-06-22T13:04:22;101857.47;;;26.60;41.85
78299;BME280;67556;55.656;12.590;2023-06-22T13:06:50;101851.97;;;26.61;41.40